Time;durP1;ratioP1;P1;durP2;ratioP2;P2;SDS_P1;SDS_P2;PMS_P1;PMS_P2;Temp;Humidity;BMP_temperature;BMP_pressure;BME280_temperature;BME280_humidity;BME280_pressure;Samples;Min_cycle;Max_cycle;Signal;HPM_P1;HPM_P2
2021/11/29 00:01:48;;;;;;;;;;;22.70;47.00;;;;;;5078303;28;20365;-78
2021/11/29 00:04:18;;;;;;;;;;;22.70;46.90;;;;;;5095274;28;19915;-77
2021/11/29 00:06:44;;;;;;;;;;;22.70;46.90;;;;;;5095145;28;19939;-80
2021/11/29 00:09:13;;;;;;;;;;;22.70;46.90;;;;;;5095285;28;20510;-80
2021/11/29 00:11:38;;;;;;;;;;;22.60;46.80;;;;;;5078460;28;20320;-77
2021/11/29 00:14:04;;;;;;;;;;;22.70;46.80;;;;;;5094918;28;19959;-79
2021/11/29 00:16:29;;;;;;;;;;;22.70;46.80;;;;;;5094839;28;19966;-78
2021/11/29 00:18:57;;;;;;;;;;;22.60;46.70;;;;;;5095683;28;19911;-80
2021/11/29 00:21:23;;;;;;;;;;;22.60;46.70;;;;;;5094824;28;20002;-78
2021/11/29 00:23:50;;;;;;;;;;;22.60;46.70;;;;;;5094949;28;20005;-81
2021/11/29 00:26:19;;;;;;;;;;;22.60;46.60;;;;;;5094732;28;19918;-77
2021/11/29 00:28:45;;;;;;;;;;;22.70;46.60;;;;;;5095616;28;20332;-81
2021/11/29 00:31:10;;;;;;;;;;;22.60;46.60;;;;;;5094776;28;20006;-77
2021/11/29 00:33:36;;;;;;;;;;;22.60;46.60;;;;;;5094777;28;19947;-78
2021/11/29 00:36:02;;;;;;;;;;;22.70;46.60;;;;;;5095416;28;20337;-77
2021/11/29 00:38:30;;;;;;;;;;;22.70;46.60;;;;;;5094697;28;19995;-79
2021/11/29 00:40:55;;;;;;;;;;;22.70;46.50;;;;;;5094382;28;19912;-79
2021/11/29 00:43:23;;;;;;;;;;;22.70;46.50;;;;;;5077421;28;19912;-77
2021/11/29 00:45:51;;;;;;;;;;;22.70;46.40;;;;;;5094572;28;20003;-75
2021/11/29 00:48:17;;;;;;;;;;;22.70;46.40;;;;;;5094504;28;19912;-84
2021/11/29 00:50:45;;;;;;;;;;;22.60;46.40;;;;;;5077872;28;19965;-87
2021/11/29 00:53:11;;;;;;;;;;;22.60;46.40;;;;;;5093955;28;20325;-82
2021/11/29 00:55:36;;;;;;;;;;;22.60;46.40;;;;;;5077649;28;20355;-85
2021/11/29 00:58:02;;;;;;;;;;;22.60;46.30;;;;;;5077505;28;20015;-83
2021/11/29 01:00:28;;;;;;;;;;;22.70;46.30;;;;;;5094289;28;19919;-83
2021/11/29 01:02:54;;;;;;;;;;;22.70;46.30;;;;;;5077560;28;19915;-83
2021/11/29 01:05:20;;;;;;;;;;;22.70;46.30;;;;;;5077593;28;20332;-85
2021/11/29 01:07:45;;;;;;;;;;;22.70;46.30;;;;;;5077410;28;19965;-82
2021/11/29 01:10:14;;;;;;;;;;;22.70;46.30;;;;;;5077542;28;20238;-83
2021/11/29 01:12:40;;;;;;;;;;;22.70;46.30;;;;;;5077587;28;19919;-83
2021/11/29 01:15:06;;;;;;;;;;;22.60;46.20;;;;;;5094414;28;19916;-82
2021/11/29 01:17:31;;;;;;;;;;;22.70;46.20;;;;;;5077695;28;19916;-84
2021/11/29 01:19:57;;;;;;;;;;;22.70;46.10;;;;;;5094504;28;19909;-83
2021/11/29 01:22:22;;;;;;;;;;;22.70;46.10;;;;;;5077471;28;19995;-84
2021/11/29 01:24:48;;;;;;;;;;;22.70;46.10;;;;;;5078401;28;19922;-82
2021/11/29 01:27:13;;;;;;;;;;;22.70;46.10;;;;;;5094434;28;19908;-82
2021/11/29 01:29:39;;;;;;;;;;;22.70;46.10;;;;;;5077520;28;19916;-83
2021/11/29 01:32:04;;;;;;;;;;;22.60;46.00;;;;;;5094081;28;19908;-81
2021/11/29 01:34:32;;;;;;;;;;;22.60;45.90;;;;;;5077105;28;19912;-83
2021/11/29 01:36:58;;;;;;;;;;;22.70;45.90;;;;;;5077760;28;19908;-87
2021/11/29 01:39:24;;;;;;;;;;;22.70;45.90;;;;;;5077072;28;19915;-83
2021/11/29 01:41:52;;;;;;;;;;;22.60;45.90;;;;;;5077496;28;19969;-83
2021/11/29 01:44:18;;;;;;;;;;;22.70;45.90;;;;;;5077269;28;19908;-85
2021/11/29 01:46:44;;;;;;;;;;;22.70;45.90;;;;;;5077392;28;19915;-86
2021/11/29 01:49:12;;;;;;;;;;;22.60;45.90;;;;;;5077345;28;20333;-84
2021/11/29 01:51:37;;;;;;;;;;;22.70;45.90;;;;;;5077505;28;19912;-84
2021/11/29 01:54:03;;;;;;;;;;;22.70;45.90;;;;;;5077302;28;19920;-85
2021/11/29 01:56:28;;;;;;;;;;;22.70;45.90;;;;;;5077133;28;19926;-84
2021/11/29 01:58:54;;;;;;;;;;;22.70;45.80;;;;;;5077446;28;19912;-84
2021/11/29 02:01:23;;;;;;;;;;;22.70;45.80;;;;;;5077729;28;19958;-84
2021/11/29 02:03:51;;;;;;;;;;;22.60;45.80;;;;;;5094749;28;19919;-82
2021/11/29 02:06:16;;;;;;;;;;;22.70;45.80;;;;;;5081626;28;19947;-83
2021/11/29 02:08:42;;;;;;;;;;;22.70;45.80;;;;;;5082649;28;19908;-83
2021/11/29 02:11:07;;;;;;;;;;;22.70;45.70;;;;;;5083088;28;20254;-87
2021/11/29 02:13:33;;;;;;;;;;;22.70;45.70;;;;;;5082621;28;20053;-84
2021/11/29 02:15:59;;;;;;;;;;;22.70;45.70;;;;;;5082074;28;19908;-84
2021/11/29 02:18:25;;;;;;;;;;;22.60;45.70;;;;;;5084076;28;19908;-83
2021/11/29 02:21:18;;;;;;;;;;;22.60;45.70;;;;;;5084557;28;19915;-82
2021/11/29 02:23:45;;;;;;;;;;;22.60;45.70;;;;;;5096704;28;19991;-81
2021/11/29 02:26:11;;;;;;;;;;;22.60;45.70;;;;;;5083352;28;19908;-83
2021/11/29 02:28:39;;;;;;;;;;;22.60;45.60;;;;;;5084277;28;20003;-85
2021/11/29 02:31:06;;;;;;;;;;;22.70;45.70;;;;;;5083433;28;20287;-85
2021/11/29 02:33:36;;;;;;;;;;;22.60;45.60;;;;;;5082273;28;19912;-84
2021/11/29 02:36:02;;;;;;;;;;;22.70;45.60;;;;;;5082698;28;19908;-83
2021/11/29 02:38:30;;;;;;;;;;;22.60;45.50;;;;;;5082064;28;20248;-80
2021/11/29 02:40:55;;;;;;;;;;;22.60;45.50;;;;;;5082795;28;19912;-82
2021/11/29 02:43:21;;;;;;;;;;;22.60;45.50;;;;;;5082333;28;20260;-83
2021/11/29 02:45:49;;;;;;;;;;;22.60;45.50;;;;;;5082581;28;19940;-83
2021/11/29 02:48:14;;;;;;;;;;;22.60;45.50;;;;;;5082666;28;19914;-85
2021/11/29 02:50:42;;;;;;;;;;;22.60;45.50;;;;;;5082856;28;19972;-82
2021/11/29 02:53:09;;;;;;;;;;;22.60;45.40;;;;;;5083192;28;19908;-84
2021/11/29 02:55:34;;;;;;;;;;;22.60;45.40;;;;;;5082546;28;19934;-85
2021/11/29 02:58:00;;;;;;;;;;;22.60;45.40;;;;;;5083297;28;19928;-82
2021/11/29 03:00:28;;;;;;;;;;;22.60;45.40;;;;;;5080979;28;19912;-84
2021/11/29 03:03:20;;;;;;;;;;;22.60;45.40;;;;;;5084750;28;19909;-86
2021/11/29 03:05:46;;;;;;;;;;;22.70;45.40;;;;;;5103112;28;19961;-81
2021/11/29 03:08:12;;;;;;;;;;;22.60;45.30;;;;;;5081057;28;19966;-87
2021/11/29 03:10:37;;;;;;;;;;;22.70;45.30;;;;;;5079948;28;19919;-84
2021/11/29 03:13:03;;;;;;;;;;;22.60;45.30;;;;;;5079605;28;19999;-85
2021/11/29 03:15:28;;;;;;;;;;;22.60;45.20;;;;;;5079121;28;19918;-84
2021/11/29 03:17:54;;;;;;;;;;;22.60;45.20;;;;;;5079497;28;19920;-84
2021/11/29 03:20:20;;;;;;;;;;;22.70;45.30;;;;;;5096433;28;19962;-82
2021/11/29 03:22:45;;;;;;;;;;;22.60;45.20;;;;;;5079436;28;19912;-86
2021/11/29 03:25:11;;;;;;;;;;;22.70;45.20;;;;;;5079235;28;19912;-84
2021/11/29 03:27:38;;;;;;;;;;;22.60;45.10;;;;;;5079432;28;19959;-85
2021/11/29 03:30:03;;;;;;;;;;;22.60;45.10;;;;;;5079534;28;19908;-85
2021/11/29 03:32:33;;;;;;;;;;;22.70;45.10;;;;;;5079487;28;19915;-86
2021/11/29 03:34:59;;;;;;;;;;;22.60;45.10;;;;;;5079361;28;19966;-86
2021/11/29 03:37:27;;;;;;;;;;;22.60;45.10;;;;;;5096158;28;20325;-83
2021/11/29 03:39:53;;;;;;;;;;;22.70;45.10;;;;;;5079028;28;20223;-83
2021/11/29 03:42:21;;;;;;;;;;;22.60;45.00;;;;;;5078918;28;19990;-85
2021/11/29 03:44:46;;;;;;;;;;;22.70;45.10;;;;;;5079116;28;19916;-83
2021/11/29 03:47:14;;;;;;;;;;;22.60;45.00;;;;;;5078846;28;19908;-87
2021/11/29 03:49:40;;;;;;;;;;;22.60;45.00;;;;;;5079106;28;20344;-85
2021/11/29 03:52:05;;;;;;;;;;;22.60;45.00;;;;;;5095341;28;19912;-82
2021/11/29 03:54:33;;;;;;;;;;;22.60;45.10;;;;;;5078608;28;20267;-81
2021/11/29 03:56:59;;;;;;;;;;;22.60;45.00;;;;;;5078793;28;19916;-81
2021/11/29 03:59:25;;;;;;;;;;;22.60;45.00;;;;;;5079075;28;19919;-84
2021/11/29 04:01:55;;;;;;;;;;;22.60;44.90;;;;;;5095457;28;19908;-85
2021/11/29 04:04:23;;;;;;;;;;;22.60;44.90;;;;;;5095283;28;20277;-85
2021/11/29 04:06:49;;;;;;;;;;;22.60;45.50;;;;;;5078973;28;19919;-83
2021/11/29 04:09:14;;;;;;;;;;;22.60;44.90;;;;;;5078547;28;20233;-84
2021/11/29 04:11:42;;;;;;;;;;;22.60;44.90;;;;;;5095141;28;19914;-85
2021/11/29 04:14:08;;;;;;;;;;;22.60;44.80;;;;;;5078736;28;19912;-84
2021/11/29 04:16:33;;;;;;;;;;;22.60;44.80;;;;;;5097551;28;19987;-84
2021/11/29 04:19:00;;;;;;;;;;;22.60;44.80;;;;;;5079990;28;19908;-88
2021/11/29 04:21:27;;;;;;;;;;;22.70;44.80;;;;;;5078630;28;20325;-83
2021/11/29 04:23:53;;;;;;;;;;;22.60;44.70;;;;;;5078316;28;19916;-82
2021/11/29 04:26:19;;;;;;;;;;;22.70;44.80;;;;;;5078026;28;19908;-84
2021/11/29 04:28:45;;;;;;;;;;;22.70;44.80;;;;;;5077142;28;19994;-81
2021/11/29 04:31:10;;;;;;;;;;;22.70;44.70;;;;;;5094978;28;19947;-82
2021/11/29 04:33:38;;;;;;;;;;;22.70;44.70;;;;;;5077764;28;19916;-87
2021/11/29 04:36:04;;;;;;;;;;;22.60;44.60;;;;;;5094913;28;20268;-83
2021/11/29 04:38:29;;;;;;;;;;;22.70;44.60;;;;;;5094588;28;19915;-82
2021/11/29 04:40:55;;;;;;;;;;;22.70;44.60;;;;;;5095216;28;19915;-81
2021/11/29 04:43:21;;;;;;;;;;;22.70;44.60;;;;;;5094831;28;19943;-88
2021/11/29 04:45:48;;;;;;;;;;;22.70;44.60;;;;;;5077894;28;19908;-84
2021/11/29 04:48:16;;;;;;;;;;;22.70;44.60;;;;;;5077788;28;19918;-83
2021/11/29 04:50:42;;;;;;;;;;;22.60;44.60;;;;;;5094710;28;20386;-84
2021/11/29 04:53:07;;;;;;;;;;;22.70;44.60;;;;;;5077742;28;19962;-85
2021/11/29 04:55:33;;;;;;;;;;;22.70;44.60;;;;;;5077865;28;19912;-83
2021/11/29 04:57:58;;;;;;;;;;;22.70;44.60;;;;;;5077225;28;20245;-84
2021/11/29 05:00:26;;;;;;;;;;;22.60;44.50;;;;;;5077536;28;19915;-85
2021/11/29 05:02:52;;;;;;;;;;;22.70;44.50;;;;;;5094422;28;20337;-83
2021/11/29 05:05:18;;;;;;;;;;;22.70;44.50;;;;;;5094366;28;19920;-85
2021/11/29 05:07:46;;;;;;;;;;;22.70;44.50;;;;;;5077544;28;19991;-83
2021/11/29 05:10:11;;;;;;;;;;;22.70;44.40;;;;;;5077990;28;19908;-84
2021/11/29 05:12:37;;;;;;;;;;;22.70;44.40;;;;;;5077734;28;20386;-85
2021/11/29 05:15:05;;;;;;;;;;;22.70;44.40;;;;;;5077429;28;19948;-83
2021/11/29 05:17:30;;;;;;;;;;;22.70;44.40;;;;;;5094823;28;19908;-84
2021/11/29 05:19:57;;;;;;;;;;;22.70;44.40;;;;;;5077920;28;19912;-86
2021/11/29 05:22:23;;;;;;;;;;;22.70;44.40;;;;;;5078361;28;19991;-84
2021/11/29 05:24:48;;;;;;;;;;;22.70;44.40;;;;;;5078170;28;19952;-87
2021/11/29 05:27:14;;;;;;;;;;;22.70;44.40;;;;;;5077380;28;19916;-85
2021/11/29 05:29:42;;;;;;;;;;;22.70;44.30;;;;;;5077584;28;19909;-86
2021/11/29 05:32:07;;;;;;;;;;;22.70;44.30;;;;;;5077901;28;19970;-86
2021/11/29 05:34:35;;;;;;;;;;;22.60;44.20;;;;;;5077541;28;19920;-84
2021/11/29 05:37:01;;;;;;;;;;;22.70;44.70;;;;;;5077482;28;19919;-83
2021/11/29 05:39:29;;;;;;;;;;;22.70;45.00;;;;;;5078731;28;19908;-83
2021/11/29 05:41:55;;;;;;;;;;;22.70;44.80;;;;;;5081281;28;20325;-82
2021/11/29 05:44:20;;;;;;;;;;;22.70;44.60;;;;;;5080799;28;19923;-86
2021/11/29 05:46:46;;;;;;;;;;;22.70;44.30;;;;;;5097816;28;19916;-84
2021/11/29 05:49:12;;;;;;;;;;;22.70;44.10;;;;;;5080833;28;19911;-82
2021/11/29 05:51:37;;;;;;;;;;;21.20;32.60;;;;;;5080887;28;19915;-83
2021/11/29 05:54:03;;;;;;;;;;;18.30;35.80;;;;;;5097616;28;20003;-84
2021/11/29 05:56:28;;;;;;;;;;;15.40;40.80;;;;;;5097553;28;19965;-82
2021/11/29 05:58:54;;;;;;;;;;;14.20;43.60;;;;;;5081062;28;19919;-82
2021/11/29 06:01:22;;;;;;;;;;;14.70;47.50;;;;;;5098157;28;20355;-84
2021/11/29 06:03:48;;;;;;;;;;;16.10;52.00;;;;;;5098891;28;20007;-83
2021/11/29 06:06:16;;;;;;;;;;;17.50;56.00;;;;;;5081142;28;20360;-87
2021/11/29 06:08:42;;;;;;;;;;;18.60;55.70;;;;;;5098719;28;20385;-84
2021/11/29 06:11:08;;;;;;;;;;;19.50;54.60;;;;;;5100937;28;19998;-84
2021/11/29 06:13:35;;;;;;;;;;;20.10;53.60;;;;;;5100725;28;19915;-83
2021/11/29 06:16:02;;;;;;;;;;;20.50;51.70;;;;;;5117528;28;19919;-82
2021/11/29 06:18:30;;;;;;;;;;;20.90;51.10;;;;;;5100512;28;19908;-82
2021/11/29 06:20:55;;;;;;;;;;;21.10;51.20;;;;;;5117568;28;20349;-81
2021/11/29 06:23:21;;;;;;;;;;;21.30;50.30;;;;;;5117464;28;19933;-85
2021/11/29 06:25:47;;;;;;;;;;;21.50;50.00;;;;;;5100562;28;20260;-83
2021/11/29 06:28:12;;;;;;;;;;;21.60;49.80;;;;;;5100957;28;20328;-82
2021/11/29 06:30:40;;;;;;;;;;;21.70;48.90;;;;;;5117341;28;19908;-82
2021/11/29 06:33:08;;;;;;;;;;;21.80;48.70;;;;;;5101149;28;19911;-83
2021/11/29 06:35:36;;;;;;;;;;;21.80;48.30;;;;;;5100807;28;19961;-84
2021/11/29 06:38:03;;;;;;;;;;;21.90;48.00;;;;;;5117238;28;19935;-83
2021/11/29 06:40:31;;;;;;;;;;;22.00;47.70;;;;;;5100095;28;20365;-82
2021/11/29 06:42:57;;;;;;;;;;;22.00;47.70;;;;;;5117161;28;19908;-87
2021/11/29 06:45:22;;;;;;;;;;;22.00;47.50;;;;;;5117941;28;20369;-84
2021/11/29 06:47:48;;;;;;;;;;;22.10;47.50;;;;;;5100269;28;20437;-84
2021/11/29 06:50:16;;;;;;;;;;;22.10;47.50;;;;;;5099762;28;20328;-86
2021/11/29 06:52:41;;;;;;;;;;;22.10;47.40;;;;;;5099999;28;19908;-83
2021/11/29 06:55:08;;;;;;;;;;;22.10;47.30;;;;;;5117601;28;19924;-83
2021/11/29 06:57:34;;;;;;;;;;;22.20;47.40;;;;;;5116787;28;19915;-87
2021/11/29 07:00:02;;;;;;;;;;;22.20;47.40;;;;;;5100072;28;19907;-82
2021/11/29 07:02:28;;;;;;;;;;;22.20;47.30;;;;;;5100322;28;19947;-82
2021/11/29 07:04:56;;;;;;;;;;;22.20;47.20;;;;;;5099835;28;19908;-85
2021/11/29 07:07:22;;;;;;;;;;;22.30;47.30;;;;;;5100053;28;19919;-84
2021/11/29 07:09:47;;;;;;;;;;;22.30;47.20;;;;;;5099602;28;19915;-85
2021/11/29 07:12:13;;;;;;;;;;;22.30;47.10;;;;;;5099673;28;19908;-82
2021/11/29 07:14:39;;;;;;;;;;;22.30;47.30;;;;;;5116680;28;19934;-82
2021/11/29 07:17:04;;;;;;;;;;;22.30;47.20;;;;;;5099657;28;19995;-83
2021/11/29 07:19:32;;;;;;;;;;;22.40;47.20;;;;;;5117290;28;19977;-83
2021/11/29 07:21:58;;;;;;;;;;;22.30;47.10;;;;;;5100906;28;20252;-81
2021/11/29 07:24:24;;;;;;;;;;;22.40;47.20;;;;;;5101647;28;19907;-85
2021/11/29 07:26:56;;;;;;;;;;;22.40;47.10;;;;;;5118387;28;19916;-83
2021/11/29 07:29:22;;;;;;;;;;;22.40;47.00;;;;;;5117201;28;19908;-84
2021/11/29 07:31:50;;;;;;;;;;;22.40;47.00;;;;;;5116839;28;19915;-84
2021/11/29 07:34:18;;;;;;;;;;;22.40;47.00;;;;;;5117997;28;19930;-83
2021/11/29 07:36:44;;;;;;;;;;;22.40;47.10;;;;;;5100332;28;19918;-82
2021/11/29 07:39:10;;;;;;;;;;;22.50;47.10;;;;;;5117187;28;20097;-84
2021/11/29 07:41:36;;;;;;;;;;;22.50;47.10;;;;;;5102072;28;19975;-80
2021/11/29 07:44:02;;;;;;;;;;;22.50;47.10;;;;;;5105172;28;19962;-85
2021/11/29 07:46:30;;;;;;;;;;;22.50;47.00;;;;;;5100469;28;20405;-84
2021/11/29 07:48:56;;;;;;;;;;;22.50;47.10;;;;;;5099831;28;19959;-84
2021/11/29 07:51:22;;;;;;;;;;;22.50;47.10;;;;;;5117630;28;20044;-81
2021/11/29 07:53:47;;;;;;;;;;;22.50;47.10;;;;;;5116642;28;20350;-84
2021/11/29 07:56:15;;;;;;;;;;;22.50;47.00;;;;;;5117028;28;20344;-86
2021/11/29 07:58:43;;;;;;;;;;;22.50;47.60;;;;;;5099247;28;19989;-83
2021/11/29 08:01:11;;;;;;;;;;;22.50;47.00;;;;;;5099471;28;19908;-84
2021/11/29 08:03:39;;;;;;;;;;;22.50;47.00;;;;;;5116919;28;19912;-84
2021/11/29 08:06:07;;;;;;;;;;;22.50;47.10;;;;;;5117270;28;19977;-84
2021/11/29 08:08:32;;;;;;;;;;;22.50;47.10;;;;;;5116611;28;20343;-83
2021/11/29 08:10:58;;;;;;;;;;;22.50;46.90;;;;;;5099037;28;19908;-81
2021/11/29 08:13:23;;;;;;;;;;;22.50;46.90;;;;;;5099248;28;19914;-85
2021/11/29 08:15:49;;;;;;;;;;;22.50;46.90;;;;;;5098997;28;20005;-83
2021/11/29 08:18:14;;;;;;;;;;;22.50;46.90;;;;;;5099070;28;19994;-84
2021/11/29 08:20:40;;;;;;;;;;;22.50;46.90;;;;;;5098187;28;19907;-84
2021/11/29 08:23:08;;;;;;;;;;;22.50;46.80;;;;;;5098168;28;19912;-87
2021/11/29 08:25:33;;;;;;;;;;;22.50;46.80;;;;;;5115639;28;19908;-85
2021/11/29 08:27:59;;;;;;;;;;;22.50;46.80;;;;;;5098737;28;19908;-83
2021/11/29 08:30:24;;;;;;;;;;;22.50;46.70;;;;;;5115655;28;19907;-83
2021/11/29 08:32:55;;;;;;;;;;;22.50;47.30;;;;;;5115485;28;19908;-84
2021/11/29 08:35:23;;;;;;;;;;;22.50;46.70;;;;;;5115455;28;19945;-84
2021/11/29 08:37:54;;;;;;;;;;;22.50;46.70;;;;;;5116225;28;19918;-85
2021/11/29 08:40:25;;;;;;;;;;;22.50;46.80;;;;;;5099213;28;20244;-85
2021/11/29 08:42:51;;;;;;;;;;;22.60;47.10;;;;;;5098900;28;19995;-83
2021/11/29 08:45:17;;;;;;;;;;;22.60;48.30;;;;;;5097908;28;19935;-84
2021/11/29 08:47:44;;;;;;;;;;;22.50;48.20;;;;;;5098567;28;19937;-82
2021/11/29 08:50:10;;;;;;;;;;;22.60;47.90;;;;;;5098674;28;20257;-83
2021/11/29 08:52:36;;;;;;;;;;;22.60;48.20;;;;;;5116488;28;19911;-85
2021/11/29 08:55:08;;;;;;;;;;;22.60;48.20;;;;;;5098207;28;19918;-83
2021/11/29 08:57:34;;;;;;;;;;;22.60;48.10;;;;;;5098887;28;19923;-84
2021/11/29 09:00:00;;;;;;;;;;;22.60;48.20;;;;;;5098599;28;19907;-86
2021/11/29 09:02:28;;;;;;;;;;;22.60;48.30;;;;;;5098209;28;19915;-86
2021/11/29 09:04:54;;;;;;;;;;;22.60;48.20;;;;;;5115993;28;19908;-86
2021/11/29 09:07:20;;;;;;;;;;;22.60;48.10;;;;;;5115538;28;19973;-85
2021/11/29 09:09:46;;;;;;;;;;;22.70;48.20;;;;;;5115486;28;20405;-86
2021/11/29 09:12:15;;;;;;;;;;;22.70;48.30;;;;;;5098310;28;20335;-84
2021/11/29 09:14:40;;;;;;;;;;;22.70;48.30;;;;;;5100332;28;20012;-85
2021/11/29 09:17:06;;;;;;;;;;;22.70;48.30;;;;;;5102547;28;20327;-87
2021/11/29 09:19:32;;;;;;;;;;;22.70;48.30;;;;;;5102036;28;19907;-84
2021/11/29 09:21:58;;;;;;;;;;;22.70;48.20;;;;;;5102220;28;19908;-86
2021/11/29 09:24:23;;;;;;;;;;;22.70;48.10;;;;;;5102209;28;20358;-86
2021/11/29 09:26:51;;;;;;;;;;;22.80;47.70;;;;;;5102625;28;19907;-89
2021/11/29 09:29:19;;;;;;;;;;;22.80;47.70;;;;;;5102317;28;19916;-82
2021/11/29 09:31:45;;;;;;;;;;;22.80;47.40;;;;;;5118871;28;19990;-80
2021/11/29 09:34:11;;;;;;;;;;;22.90;47.50;;;;;;5101641;28;20437;-81
2021/11/29 09:36:36;;;;;;;;;;;23.20;47.40;;;;;;5118732;28;19922;-82
2021/11/29 09:39:03;;;;;;;;;;;23.50;46.90;;;;;;5119596;28;19912;-81
2021/11/29 09:41:28;;;;;;;;;;;23.70;46.60;;;;;;5118517;28;19994;-80
2021/11/29 09:43:54;;;;;;;;;;;23.90;46.30;;;;;;5118988;28;19966;-82
2021/11/29 09:46:23;;;;;;;;;;;24.10;45.90;;;;;;5119011;28;19990;-82
2021/11/29 09:48:48;;;;;;;;;;;24.20;45.60;;;;;;5101141;28;19908;-85
2021/11/29 09:51:14;;;;;;;;;;;24.40;45.20;;;;;;5135517;27;19907;-82
2021/11/29 09:53:39;;;;;;;;;;;24.50;44.80;;;;;;5118321;28;19960;-83
2021/11/29 09:56:07;;;;;;;;;;;24.60;44.50;;;;;;5118973;27;20332;-82
2021/11/29 09:58:33;;;;;;;;;;;24.70;44.30;;;;;;5117847;28;19915;-80
2021/11/29 10:01:00;;;;;;;;;;;24.80;44.10;;;;;;5118068;28;19991;-81
2021/11/29 10:03:25;;;;;;;;;;;24.80;43.80;;;;;;5117895;28;20228;-81
2021/11/29 10:05:51;;;;;;;;;;;24.90;43.60;;;;;;5118900;28;19908;-82
2021/11/29 10:08:18;;;;;;;;;;;24.90;43.40;;;;;;5117846;28;19907;-82
2021/11/29 10:10:47;;;;;;;;;;;25.00;43.20;;;;;;5117751;28;19908;-82
2021/11/29 10:13:13;;;;;;;;;;;25.00;43.10;;;;;;5100732;28;20383;-81
2021/11/29 10:15:41;;;;;;;;;;;25.10;43.00;;;;;;5100423;28;19916;-83
2021/11/29 10:18:16;;;;;;;;;;;25.10;43.00;;;;;;5105239;28;19979;-82
2021/11/29 10:20:46;;;;;;;;;;;25.20;42.80;;;;;;5117387;28;19908;-81
2021/11/29 10:23:13;;;;;;;;;;;25.20;42.70;;;;;;5117736;28;20217;-81
2021/11/29 10:25:42;;;;;;;;;;;25.20;42.50;;;;;;5116920;28;20292;-85
2021/11/29 10:28:41;;;;;;;;;;;25.20;42.50;;;;;;5101240;28;19907;-82
2021/11/29 10:31:19;;;;;;;;;;;25.30;42.50;;;;;;5084719;28;19995;-82
2021/11/29 10:33:45;;;;;;;;;;;25.30;43.00;;;;;;5118586;28;20018;-81
2021/11/29 10:36:11;;;;;;;;;;;25.40;42.30;;;;;;5117620;28;19908;-83
2021/11/29 10:38:43;;;;;;;;;;;25.40;42.20;;;;;;5100520;28;19927;-82
2021/11/29 10:41:09;;;;;;;;;;;25.40;42.20;;;;;;5100992;28;19912;-82
2021/11/29 10:43:41;;;;;;;;;;;25.40;42.00;;;;;;5117496;28;20386;-81
2021/11/29 10:46:20;;;;;;;;;;;25.50;42.00;;;;;;5100173;28;19923;-83
2021/11/29 10:48:46;;;;;;;;;;;25.50;41.90;;;;;;5117013;28;19908;-82
2021/11/29 10:51:12;;;;;;;;;;;25.60;41.90;;;;;;5100125;28;19993;-84
2021/11/29 10:53:45;;;;;;;;;;;25.60;41.70;;;;;;5100058;28;20007;-79
2021/11/29 10:56:10;;;;;;;;;;;25.60;41.60;;;;;;5117616;28;20252;-81
2021/11/29 10:58:40;;;;;;;;;;;25.60;41.60;;;;;;5100216;28;19920;-82
2021/11/29 11:01:05;;;;;;;;;;;25.70;41.50;;;;;;5100466;28;19908;-81
2021/11/29 11:03:47;;;;;;;;;;;25.70;41.40;;;;;;5100107;28;19919;-82
2021/11/29 11:06:15;;;;;;;;;;;25.70;41.40;;;;;;5100255;28;20260;-83
2021/11/29 11:08:41;;;;;;;;;;;25.70;42.00;;;;;;5117051;28;19908;-81
2021/11/29 11:11:25;;;;;;;;;;;25.80;41.30;;;;;;5117493;28;20356;-82
2021/11/29 11:14:04;;;;;;;;;;;25.80;41.30;;;;;;5116675;28;19916;-80
2021/11/29 11:16:50;;;;;;;;;;;25.80;41.20;;;;;;5116533;28;19922;-82
2021/11/29 11:19:25;;;;;;;;;;;25.80;41.30;;;;;;5099312;28;19919;-82
2021/11/29 11:21:52;;;;;;;;;;;25.90;41.10;;;;;;5099704;28;20004;-81
2021/11/29 11:24:22;;;;;;;;;;;25.90;41.00;;;;;;5099465;28;20337;-80
2021/11/29 11:26:48;;;;;;;;;;;25.90;41.00;;;;;;5099365;28;19951;-81
2021/11/29 11:29:14;;;;;;;;;;;25.90;41.00;;;;;;5116305;28;19908;-81
2021/11/29 11:31:39;;;;;;;;;;;25.90;40.90;;;;;;5116416;28;19919;-83
2021/11/29 11:34:05;;;;;;;;;;;25.90;40.90;;;;;;5099106;28;19958;-81
2021/11/29 11:36:33;;;;;;;;;;;26.00;41.10;;;;;;5116571;28;19915;-83
2021/11/29 11:39:05;;;;;;;;;;;26.00;41.00;;;;;;5116028;28;19908;-84
2021/11/29 11:41:33;;;;;;;;;;;26.00;40.90;;;;;;5099691;28;19919;-81
2021/11/29 11:44:05;;;;;;;;;;;26.00;40.80;;;;;;5098986;28;19998;-81
2021/11/29 11:46:30;;;;;;;;;;;26.10;40.90;;;;;;5116844;28;20434;-82
2021/11/29 11:48:59;;;;;;;;;;;26.10;40.90;;;;;;5116317;28;19911;-81
2021/11/29 11:51:27;;;;;;;;;;;26.10;40.80;;;;;;5116544;28;19981;-80
2021/11/29 11:53:55;;;;;;;;;;;26.10;40.80;;;;;;5115474;28;19977;-79
2021/11/29 11:56:20;;;;;;;;;;;26.10;40.80;;;;;;5115714;28;19923;-79
2021/11/29 11:58:50;;;;;;;;;;;26.10;40.70;;;;;;5115783;28;19924;-80
2021/11/29 12:01:19;;;;;;;;;;;26.10;40.70;;;;;;5099228;28;19907;-81
2021/11/29 12:03:48;;;;;;;;;;;26.10;40.70;;;;;;5099141;28;19933;-81
2021/11/29 12:06:16;;;;;;;;;;;26.10;40.60;;;;;;5115804;28;19919;-81
2021/11/29 12:08:43;;;;;;;;;;;26.20;40.60;;;;;;5115834;28;19908;-86
2021/11/29 12:11:32;;;;;;;;;;;26.20;40.50;;;;;;5115583;28;20033;-83
2021/11/29 12:14:01;;;;;;;;;;;26.20;40.20;;;;;;5115215;28;19916;-81
2021/11/29 12:16:30;;;;;;;;;;;26.10;40.50;;;;;;5115874;28;19912;-83
2021/11/29 12:18:58;;;;;;;;;;;26.10;40.70;;;;;;5098246;28;20044;-81
2021/11/29 12:21:27;;;;;;;;;;;26.10;40.60;;;;;;5115392;28;19908;-81
2021/11/29 12:24:01;;;;;;;;;;;26.00;40.80;;;;;;5098653;28;19951;-83
2021/11/29 12:29:19;;;;;;;;;;;26.00;41.70;;;;;;5115920;28;19908;-82
2021/11/29 12:31:47;;;;;;;;;;;26.00;41.90;;;;;;5115091;28;19908;-83
2021/11/29 12:34:15;;;;;;;;;;;26.00;43.00;;;;;;5098103;28;19911;-82
2021/11/29 12:36:59;;;;;;;;;;;26.00;43.00;;;;;;5098739;28;19907;-81
2021/11/29 12:39:43;;;;;;;;;;;26.00;43.50;;;;;;5115895;28;19927;-82
2021/11/29 12:42:22;;;;;;;;;;;26.00;43.70;;;;;;5115949;28;20328;-81
2021/11/29 12:44:50;;;;;;;;;;;26.00;43.60;;;;;;5115555;28;19908;-82
2021/11/29 12:47:19;;;;;;;;;;;26.00;43.60;;;;;;5098268;28;19919;-83
2021/11/29 12:49:44;;;;;;;;;;;26.00;43.30;;;;;;5113982;28;19907;-83
2021/11/29 12:52:46;;;;;;;;;;;26.00;43.30;;;;;;5098158;28;19914;-83
2021/11/29 12:55:23;;;;;;;;;;;26.00;43.20;;;;;;5072385;28;19912;-83
2021/11/29 12:58:09;;;;;;;;;;;26.00;43.10;;;;;;5120294;28;19941;-82
2021/11/29 13:00:49;;;;;;;;;;;26.00;43.10;;;;;;5115737;28;19950;-84
2021/11/29 13:03:23;;;;;;;;;;;26.00;43.00;;;;;;5116380;28;19908;-81
2021/11/29 13:05:52;;;;;;;;;;;26.00;42.90;;;;;;5115382;28;19908;-82
2021/11/29 13:08:23;;;;;;;;;;;26.10;42.90;;;;;;5098177;28;19908;-83
2021/11/29 13:10:59;;;;;;;;;;;26.10;42.80;;;;;;5114953;28;19969;-83
2021/11/29 13:14:00;;;;;;;;;;;26.10;42.70;;;;;;5117275;28;19908;-82
2021/11/29 13:16:26;;;;;;;;;;;26.10;42.60;;;;;;5053815;28;19917;-82
2021/11/29 13:18:56;;;;;;;;;;;26.10;42.50;;;;;;5097637;28;20413;-81
2021/11/29 13:21:24;;;;;;;;;;;26.10;42.40;;;;;;5098038;28;19933;-83
2021/11/29 13:24:00;;;;;;;;;;;26.10;42.40;;;;;;5115846;28;19908;-81
2021/11/29 13:26:26;;;;;;;;;;;26.10;42.20;;;;;;5115440;28;19919;-81
2021/11/29 13:28:53;;;;;;;;;;;26.10;42.20;;;;;;5115592;28;19911;-80
2021/11/29 13:31:23;;;;;;;;;;;26.10;42.10;;;;;;5115493;28;20328;-82
2021/11/29 13:33:48;;;;;;;;;;;26.10;42.00;;;;;;5097482;28;19976;-82
2021/11/29 13:36:14;;;;;;;;;;;26.20;41.90;;;;;;5097434;28;19951;-81
2021/11/29 13:38:39;;;;;;;;;;;26.10;41.80;;;;;;5115051;28;19908;-82
2021/11/29 13:41:05;;;;;;;;;;;26.10;41.90;;;;;;5115254;28;19995;-83
2021/11/29 13:43:31;;;;;;;;;;;26.20;41.80;;;;;;5115431;28;20327;-80
2021/11/29 13:45:57;;;;;;;;;;;26.20;41.70;;;;;;5097409;28;19922;-81
2021/11/29 13:48:23;;;;;;;;;;;26.20;41.70;;;;;;5114248;28;19908;-82
2021/11/29 13:50:51;;;;;;;;;;;26.20;41.70;;;;;;5097692;28;19953;-84
2021/11/29 13:53:20;;;;;;;;;;;26.20;41.70;;;;;;5097635;28;19911;-83
2021/11/29 13:55:49;;;;;;;;;;;26.20;41.60;;;;;;5097593;28;19923;-80
2021/11/29 13:58:16;;;;;;;;;;;26.20;41.60;;;;;;5096974;28;20255;-81
2021/11/29 14:00:43;;;;;;;;;;;26.20;41.60;;;;;;5099078;28;19951;-82
2021/11/29 14:03:23;;;;;;;;;;;26.30;41.70;;;;;;5100989;28;19964;-82
2021/11/29 14:05:48;;;;;;;;;;;26.30;41.70;;;;;;5117826;28;19915;-80
2021/11/29 14:08:16;;;;;;;;;;;26.30;41.50;;;;;;5117710;28;20411;-78
2021/11/29 14:10:48;;;;;;;;;;;26.30;41.30;;;;;;5101106;28;19916;-85
2021/11/29 14:13:14;;;;;;;;;;;26.30;41.50;;;;;;5101165;28;19964;-82
2021/11/29 14:15:53;;;;;;;;;;;26.30;41.50;;;;;;5118197;28;19920;-81
2021/11/29 14:18:29;;;;;;;;;;;26.30;41.40;;;;;;5117711;28;20344;-81
2021/11/29 14:20:57;;;;;;;;;;;26.30;41.30;;;;;;5117417;28;19908;-81
2021/11/29 14:23:43;;;;;;;;;;;26.30;41.30;;;;;;5118115;28;19907;-80